sensor_id;sensor_type;location;lat;lon;timestamp;temperature;humidity
36800;DHT22;22752;51.960;5.886;2023-04-06T00:01:32;3.00;99.90
36800;DHT22;22752;51.960;5.886;2023-04-06T00:03:58;3.00;99.90
36800;DHT22;22752;51.960;5.886;2023-04-06T00:06:23;3.00;99.90
36800;DHT22;22752;51.960;5.886;2023-04-06T00:08:49;3.00;99.90
36800;DHT22;22752;51.960;5.886;2023-04-06T00:11:15;2.90;99.90
36800;DHT22;22752;51.960;5.886;2023-04-06T00:13:42;3.00;99.90
36800;DHT22;22752;51.960;5.886;2023-04-06T00:16:08;3.00;99.90
36800;DHT22;22752;51.960;5.886;2023-04-06T00:18:33;3.00;99.90
36800;DHT22;22752;51.960;5.886;2023-04-06T00:20:59;2.90;99.90
36800;DHT22;22752;51.960;5.886;2023-04-06T00:23:25;2.90;99.90
36800;DHT22;22752;51.960;5.886;2023-04-06T00:25:51;2.90;99.90
36800;DHT22;22752;51.960;5.886;2023-04-06T00:28:16;2.80;99.90
36800;DHT22;22752;51.960;5.886;2023-04-06T00:30:42;2.80;99.90
36800;DHT22;22752;51.960;5.886;2023-04-06T00:33:08;2.70;99.90
36800;DHT22;22752;51.960;5.886;2023-04-06T00:35:34;2.60;99.90
36800;DHT22;22752;51.960;5.886;2023-04-06T00:38:00;2.60;99.90
36800;DHT22;22752;51.960;5.886;2023-04-06T00:40:26;2.50;99.90
36800;DHT22;22752;51.960;5.886;2023-04-06T00:42:54;2.50;99.90
36800;DHT22;22752;51.960;5.886;2023-04-06T00:45:20;2.50;99.90
36800;DHT22;22752;51.960;5.886;2023-04-06T00:47:46;2.50;99.90
36800;DHT22;22752;51.960;5.886;2023-04-06T00:50:11;2.50;99.90
36800;DHT22;22752;51.960;5.886;2023-04-06T00:52:37;2.40;99.90
36800;DHT22;22752;51.960;5.886;2023-04-06T00:55:03;2.40;99.90
36800;DHT22;22752;51.960;5.886;2023-04-06T00:57:29;2.30;99.90
36800;DHT22;22752;51.960;5.886;2023-04-06T00:59:56;2.20;99.90
36800;DHT22;22752;51.960;5.886;2023-04-06T01:02:22;2.20;99.90
36800;DHT22;22752;51.960;5.886;2023-04-06T01:04:48;2.10;99.90
36800;DHT22;22752;51.960;5.886;2023-04-06T01:07:14;2.10;99.90
36800;DHT22;22752;51.960;5.886;2023-04-06T01:09:39;2.10;99.90
36800;DHT22;22752;51.960;5.886;2023-04-06T01:12:07;2.00;99.90
36800;DHT22;22752;51.960;5.886;2023-04-06T01:14:32;2.00;99.90
36800;DHT22;22752;51.960;5.886;2023-04-06T01:17:00;2.00;99.90
36800;DHT22;22752;51.960;5.886;2023-04-06T01:19:26;2.00;99.90
36800;DHT22;22752;51.960;5.886;2023-04-06T01:21:51;2.00;99.90
36800;DHT22;22752;51.960;5.886;2023-04-06T01:24:19;2.00;99.90
36800;DHT22;22752;51.960;5.886;2023-04-06T01:26:45;2.00;99.90
36800;DHT22;22752;51.960;5.886;2023-04-06T01:29:11;2.00;99.90
36800;DHT22;22752;51.960;5.886;2023-04-06T01:31:36;2.00;99.90
36800;DHT22;22752;51.960;5.886;2023-04-06T01:34:02;2.00;99.90
36800;DHT22;22752;51.960;5.886;2023-04-06T01:36:28;2.00;99.90
36800;DHT22;22752;51.960;5.886;2023-04-06T01:38:54;2.00;99.90
36800;DHT22;22752;51.960;5.886;2023-04-06T01:41:19;1.90;99.90
36800;DHT22;22752;51.960;5.886;2023-04-06T01:43:47;1.90;99.90
36800;DHT22;22752;51.960;5.886;2023-04-06T01:46:12;1.80;99.90
36800;DHT22;22752;51.960;5.886;2023-04-06T01:48:38;1.80;99.90
36800;DHT22;22752;51.960;5.886;2023-04-06T01:51:04;1.80;99.90
36800;DHT22;22752;51.960;5.886;2023-04-06T01:53:30;1.80;99.90
36800;DHT22;22752;51.960;5.886;2023-04-06T01:55:55;1.80;99.90
36800;DHT22;22752;51.960;5.886;2023-04-06T04:52:06;3.90;99.90
36800;DHT22;22752;51.960;5.886;2023-04-06T04:54:32;3.90;99.90
36800;DHT22;22752;51.960;5.886;2023-04-06T04:56:57;4.00;99.90
36800;DHT22;22752;51.960;5.886;2023-04-06T04:59:23;4.00;99.90
36800;DHT22;22752;51.960;5.886;2023-04-06T05:01:49;4.00;99.90
36800;DHT22;22752;51.960;5.886;2023-04-06T05:04:14;4.10;99.90
36800;DHT22;22752;51.960;5.886;2023-04-06T05:06:40;4.10;99.90
36800;DHT22;22752;51.960;5.886;2023-04-06T05:09:06;4.10;99.90
36800;DHT22;22752;51.960;5.886;2023-04-06T05:11:31;4.10;99.90
36800;DHT22;22752;51.960;5.886;2023-04-06T05:13:57;4.10;99.90
36800;DHT22;22752;51.960;5.886;2023-04-06T05:16:23;4.10;99.90
36800;DHT22;22752;51.960;5.886;2023-04-06T05:18:48;4.10;99.90
36800;DHT22;22752;51.960;5.886;2023-04-06T05:21:14;4.10;99.90
36800;DHT22;22752;51.960;5.886;2023-04-06T05:23:40;4.20;99.90
36800;DHT22;22752;51.960;5.886;2023-04-06T05:26:06;4.20;99.90
36800;DHT22;22752;51.960;5.886;2023-04-06T05:28:32;4.20;99.90
36800;DHT22;22752;51.960;5.886;2023-04-06T05:30:58;4.30;99.90
36800;DHT22;22752;51.960;5.886;2023-04-06T05:33:25;4.40;99.90
36800;DHT22;22752;51.960;5.886;2023-04-06T05:35:51;4.50;99.90
36800;DHT22;22752;51.960;5.886;2023-04-06T05:38:17;4.60;99.90
36800;DHT22;22752;51.960;5.886;2023-04-06T05:40:42;4.70;99.90
36800;DHT22;22752;51.960;5.886;2023-04-06T05:43:08;4.80;99.90
36800;DHT22;22752;51.960;5.886;2023-04-06T05:45:34;5.00;99.90
36800;DHT22;22752;51.960;5.886;2023-04-06T05:48:01;5.20;99.90
36800;DHT22;22752;51.960;5.886;2023-04-06T05:50:27;5.40;99.90
36800;DHT22;22752;51.960;5.886;2023-04-06T05:52:53;5.60;99.90
36800;DHT22;22752;51.960;5.886;2023-04-06T05:55:19;5.70;99.90
36800;DHT22;22752;51.960;5.886;2023-04-06T05:57:44;5.80;99.90
36800;DHT22;22752;51.960;5.886;2023-04-06T06:00:11;5.70;99.90
36800;DHT22;22752;51.960;5.886;2023-04-06T06:02:36;5.70;99.90
36800;DHT22;22752;51.960;5.886;2023-04-06T06:05:02;5.70;99.90
36800;DHT22;22752;51.960;5.886;2023-04-06T06:07:28;5.90;99.90
36800;DHT22;22752;51.960;5.886;2023-04-06T06:09:57;5.90;99.90
36800;DHT22;22752;51.960;5.886;2023-04-06T06:12:23;6.00;99.90
36800;DHT22;22752;51.960;5.886;2023-04-06T06:14:49;6.20;99.90
36800;DHT22;22752;51.960;5.886;2023-04-06T06:17:15;6.60;99.90
36800;DHT22;22752;51.960;5.886;2023-04-06T06:19:40;7.20;99.90
36800;DHT22;22752;51.960;5.886;2023-04-06T06:22:06;7.80;99.90
36800;DHT22;22752;51.960;5.886;2023-04-06T06:24:32;8.20;99.90
36800;DHT22;22752;51.960;5.886;2023-04-06T06:26:58;8.20;99.90
36800;DHT22;22752;51.960;5.886;2023-04-06T06:29:24;7.90;99.90
36800;DHT22;22752;51.960;5.886;2023-04-06T06:31:49;7.80;99.90
36800;DHT22;22752;51.960;5.886;2023-04-06T06:34:15;7.70;99.90
36800;DHT22;22752;51.960;5.886;2023-04-06T06:36:41;7.70;99.90
36800;DHT22;22752;51.960;5.886;2023-04-06T06:39:07;8.00;99.90
36800;DHT22;22752;51.960;5.886;2023-04-06T06:41:32;8.40;99.90
36800;DHT22;22752;51.960;5.886;2023-04-06T06:43:58;8.70;99.90
36800;DHT22;22752;51.960;5.886;2023-04-06T06:46:24;9.10;99.90
36800;DHT22;22752;51.960;5.886;2023-04-06T06:48:49;9.70;99.90
36800;DHT22;22752;51.960;5.886;2023-04-06T06:51:15;10.10;99.90
36800;DHT22;22752;51.960;5.886;2023-04-06T06:53:41;10.50;98.50
36800;DHT22;22752;51.960;5.886;2023-04-06T06:56:06;10.60;97.40
36800;DHT22;22752;51.960;5.886;2023-04-06T06:58:32;10.60;96.50
36800;DHT22;22752;51.960;5.886;2023-04-06T07:00:58;10.70;96.40
36800;DHT22;22752;51.960;5.886;2023-04-06T07:03:24;10.60;95.40
36800;DHT22;22752;51.960;5.886;2023-04-06T07:05:50;10.50;95.70
36800;DHT22;22752;51.960;5.886;2023-04-06T07:08:22;10.20;95.70
36800;DHT22;22752;51.960;5.886;2023-04-06T07:10:52;10.10;96.00
36800;DHT22;22752;51.960;5.886;2023-04-06T07:13:19;10.00;96.40
36800;DHT22;22752;51.960;5.886;2023-04-06T07:15:48;9.80;96.30
36800;DHT22;22752;51.960;5.886;2023-04-06T07:18:14;9.60;96.30
36800;DHT22;22752;51.960;5.886;2023-04-06T07:20:40;9.50;96.10
36800;DHT22;22752;51.960;5.886;2023-04-06T07:23:06;9.40;96.50
36800;DHT22;22752;51.960;5.886;2023-04-06T07:25:32;9.30;96.60
36800;DHT22;22752;51.960;5.886;2023-04-06T07:27:57;9.40;96.60
36800;DHT22;22752;51.960;5.886;2023-04-06T07:30:23;9.40;96.80
36800;DHT22;22752;51.960;5.886;2023-04-06T07:32:51;9.50;96.50
36800;DHT22;22752;51.960;5.886;2023-04-06T07:35:17;9.50;96.50
36800;DHT22;22752;51.960;5.886;2023-04-06T07:37:43;9.60;96.50
36800;DHT22;22752;51.960;5.886;2023-04-06T07:40:09;9.70;96.70
36800;DHT22;22752;51.960;5.886;2023-04-06T07:42:34;9.80;96.20
36800;DHT22;22752;51.960;5.886;2023-04-06T07:45:00;9.90;96.30
36800;DHT22;22752;51.960;5.886;2023-04-06T07:47:26;10.10;96.30
36800;DHT22;22752;51.960;5.886;2023-04-06T07:49:51;10.20;96.20
36800;DHT22;22752;51.960;5.886;2023-04-06T07:52:17;10.20;95.50
36800;DHT22;22752;51.960;5.886;2023-04-06T07:54:43;10.10;95.50
36800;DHT22;22752;51.960;5.886;2023-04-06T07:57:09;9.90;95.70
36800;DHT22;22752;51.960;5.886;2023-04-06T07:59:35;9.80;96.00
36800;DHT22;22752;51.960;5.886;2023-04-06T08:02:00;9.70;96.30
36800;DHT22;22752;51.960;5.886;2023-04-06T08:04:26;9.60;96.50
36800;DHT22;22752;51.960;5.886;2023-04-06T08:06:52;9.60;96.70
36800;DHT22;22752;51.960;5.886;2023-04-06T08:09:17;9.60;96.90
36800;DHT22;22752;51.960;5.886;2023-04-06T08:11:43;9.60;96.90
36800;DHT22;22752;51.960;5.886;2023-04-06T08:14:10;9.60;97.10
36800;DHT22;22752;51.960;5.886;2023-04-06T08:16:35;9.60;97.10
36800;DHT22;22752;51.960;5.886;2023-04-06T08:19:01;9.60;96.70
36800;DHT22;22752;51.960;5.886;2023-04-06T08:21:27;9.60;96.70
36800;DHT22;22752;51.960;5.886;2023-04-06T08:23:52;9.70;96.50
36800;DHT22;22752;51.960;5.886;2023-04-06T08:26:18;9.60;96.30
36800;DHT22;22752;51.960;5.886;2023-04-06T08:28:44;9.70;96.40
36800;DHT22;22752;51.960;5.886;2023-04-06T08:31:09;9.80;96.40
36800;DHT22;22752;51.960;5.886;2023-04-06T08:33:35;9.80;95.90
36800;DHT22;22752;51.960;5.886;2023-04-06T08:36:12;9.90;96.00
36800;DHT22;22752;51.960;5.886;2023-04-06T08:38:39;9.90;96.10
36800;DHT22;22752;51.960;5.886;2023-04-06T08:41:11;10.00;96.10
36800;DHT22;22752;51.960;5.886;2023-04-06T08:43:48;10.10;96.10
36800;DHT22;22752;51.960;5.886;2023-04-06T08:46:14;10.20;96.10
36800;DHT22;22752;51.960;5.886;2023-04-06T08:48:41;10.20;95.90
36800;DHT22;22752;51.960;5.886;2023-04-06T08:51:08;10.20;96.20
36800;DHT22;22752;51.960;5.886;2023-04-06T08:53:34;10.30;96.30
36800;DHT22;22752;51.960;5.886;2023-04-06T08:56:01;10.40;96.50
36800;DHT22;22752;51.960;5.886;2023-04-06T08:58:35;10.50;96.50
36800;DHT22;22752;51.960;5.886;2023-04-06T09:01:06;10.60;96.40
36800;DHT22;22752;51.960;5.886;2023-04-06T09:03:36;10.60;96.50
36800;DHT22;22752;51.960;5.886;2023-04-06T09:06:02;10.60;96.70
36800;DHT22;22752;51.960;5.886;2023-04-06T09:08:29;10.70;96.80
36800;DHT22;22752;51.960;5.886;2023-04-06T09:10:55;10.80;96.70
36800;DHT22;22752;51.960;5.886;2023-04-06T09:13:21;10.90;96.30
36800;DHT22;22752;51.960;5.886;2023-04-06T09:15:57;11.00;96.30
36800;DHT22;22752;51.960;5.886;2023-04-06T09:18:30;11.20;96.10
36800;DHT22;22752;51.960;5.886;2023-04-06T09:21:00;11.40;96.10
36800;DHT22;22752;51.960;5.886;2023-04-06T09:23:27;11.60;95.50
36800;DHT22;22752;51.960;5.886;2023-04-06T09:26:13;11.70;95.10
36800;DHT22;22752;51.960;5.886;2023-04-06T09:28:54;11.80;95.10
36800;DHT22;22752;51.960;5.886;2023-04-06T09:31:30;12.00;94.90
36800;DHT22;22752;51.960;5.886;2023-04-06T09:33:59;12.10;95.00
36800;DHT22;22752;51.960;5.886;2023-04-06T09:36:33;12.30;94.50
36800;DHT22;22752;51.960;5.886;2023-04-06T09:39:01;12.30;93.80
36800;DHT22;22752;51.960;5.886;2023-04-06T09:41:29;12.30;93.70
36800;DHT22;22752;51.960;5.886;2023-04-06T09:44:06;12.40;94.10
36800;DHT22;22752;51.960;5.886;2023-04-06T09:46:36;12.50;93.40
36800;DHT22;22752;51.960;5.886;2023-04-06T09:49:02;12.60;93.50
36800;DHT22;22752;51.960;5.886;2023-04-06T09:51:39;12.60;93.20
36800;DHT22;22752;51.960;5.886;2023-04-06T09:54:06;12.60;93.40
36800;DHT22;22752;51.960;5.886;2023-04-06T10:00:01;12.70;93.10
36800;DHT22;22752;51.960;5.886;2023-04-06T10:02:34;12.80;93.30
36800;DHT22;22752;51.960;5.886;2023-04-06T10:05:42;12.80;93.20
36800;DHT22;22752;51.960;5.886;2023-04-06T10:08:10;12.90;93.00
36800;DHT22;22752;51.960;5.886;2023-04-06T10:10:36;12.90;93.20
36800;DHT22;22752;51.960;5.886;2023-04-06T10:13:03;12.80;93.10
36800;DHT22;22752;51.960;5.886;2023-04-06T10:15:29;12.80;93.00
36800;DHT22;22752;51.960;5.886;2023-04-06T10:17:57;12.90;93.00
36800;DHT22;22752;51.960;5.886;2023-04-06T10:25:58;12.90;93.30
36800;DHT22;22752;51.960;5.886;2023-04-06T10:28:25;12.90;93.00
36800;DHT22;22752;51.960;5.886;2023-04-06T10:31:00;12.80;93.10
36800;DHT22;22752;51.960;5.886;2023-04-06T10:33:27;12.70;93.00
36800;DHT22;22752;51.960;5.886;2023-04-06T10:35:53;12.60;93.30
36800;DHT22;22752;51.960;5.886;2023-04-06T10:38:21;12.60;93.40
36800;DHT22;22752;51.960;5.886;2023-04-06T10:40:48;12.60;93.40
36800;DHT22;22752;51.960;5.886;2023-04-06T10:43:20;12.60;93.80
36800;DHT22;22752;51.960;5.886;2023-04-06T10:45:57;12.70;94.10
36800;DHT22;22752;51.960;5.886;2023-04-06T10:48:25;12.70;93.90
36800;DHT22;22752;51.960;5.886;2023-04-06T10:51:01;12.80;94.00
36800;DHT22;22752;51.960;5.886;2023-04-06T10:53:27;12.80;93.90
36800;DHT22;22752;51.960;5.886;2023-04-06T10:55:57;12.90;94.00
36800;DHT22;22752;51.960;5.886;2023-04-06T10:58:27;13.00;94.00
36800;DHT22;22752;51.960;5.886;2023-04-06T11:00:53;13.20;94.00
36800;DHT22;22752;51.960;5.886;2023-04-06T11:03:19;13.30;94.10
36800;DHT22;22752;51.960;5.886;2023-04-06T11:05:46;13.40;94.10
36800;DHT22;22752;51.960;5.886;2023-04-06T11:08:42;13.60;94.30
36800;DHT22;22752;51.960;5.886;2023-04-06T11:11:12;13.70;93.50
36800;DHT22;22752;51.960;5.886;2023-04-06T11:13:55;13.50;93.90
36800;DHT22;22752;51.960;5.886;2023-04-06T11:16:29;13.50;94.20
36800;DHT22;22752;51.960;5.886;2023-04-06T11:18:56;13.40;94.30
36800;DHT22;22752;51.960;5.886;2023-04-06T11:21:32;13.40;94.60
36800;DHT22;22752;51.960;5.886;2023-04-06T11:26:58;13.50;94.60
36800;DHT22;22752;51.960;5.886;2023-04-06T11:29:30;13.50;94.70
36800;DHT22;22752;51.960;5.886;2023-04-06T11:32:02;13.50;94.90
36800;DHT22;22752;51.960;5.886;2023-04-06T11:34:33;13.50;94.90
36800;DHT22;22752;51.960;5.886;2023-04-06T11:37:03;13.40;95.10
36800;DHT22;22752;51.960;5.886;2023-04-06T11:39:32;13.40;95.60
36800;DHT22;22752;51.960;5.886;2023-04-06T11:42:03;13.40;95.70
36800;DHT22;22752;51.960;5.886;2023-04-06T11:44:42;13.30;96.40
36800;DHT22;22752;51.960;5.886;2023-04-06T11:47:12;13.20;97.00
36800;DHT22;22752;51.960;5.886;2023-04-06T11:49:39;12.90;97.50
36800;DHT22;22752;51.960;5.886;2023-04-06T11:52:23;12.80;98.50
36800;DHT22;22752;51.960;5.886;2023-04-06T11:54:51;12.70;99.50
36800;DHT22;22752;51.960;5.886;2023-04-06T11:57:18;12.70;99.90
36800;DHT22;22752;51.960;5.886;2023-04-06T11:59:44;12.60;99.90
36800;DHT22;22752;51.960;5.886;2023-04-06T12:02:10;12.50;99.90
36800;DHT22;22752;51.960;5.886;2023-04-06T12:04:36;12.40;99.90
36800;DHT22;22752;51.960;5.886;2023-04-06T12:07:03;12.40;99.90
36800;DHT22;22752;51.960;5.886;2023-04-06T12:09:29;12.30;99.90
36800;DHT22;22752;51.960;5.886;2023-04-06T12:11:55;12.10;99.90
36800;DHT22;22752;51.960;5.886;2023-04-06T12:14:21;12.00;99.90
36800;DHT22;22752;51.960;5.886;2023-04-06T12:16:47;11.80;99.90
36800;DHT22;22752;51.960;5.886;2023-04-06T12:19:13;11.80;99.90
36800;DHT22;22752;51.960;5.886;2023-04-06T12:21:39;11.70;99.90
36800;DHT22;22752;51.960;5.886;2023-04-06T12:24:06;11.60;99.90
36800;DHT22;22752;51.960;5.886;2023-04-06T12:26:31;11.50;99.90
36800;DHT22;22752;51.960;5.886;2023-04-06T12:28:59;11.30;99.90
36800;DHT22;22752;51.960;5.886;2023-04-06T12:31:32;11.30;99.90
36800;DHT22;22752;51.960;5.886;2023-04-06T12:34:00;11.10;99.90
36800;DHT22;22752;51.960;5.886;2023-04-06T12:36:27;11.10;99.90
36800;DHT22;22752;51.960;5.886;2023-04-06T12:38:53;11.00;99.90
36800;DHT22;22752;51.960;5.886;2023-04-06T12:41:19;11.00;99.90
36800;DHT22;22752;51.960;5.886;2023-04-06T12:43:45;10.90;99.90
36800;DHT22;22752;51.960;5.886;2023-04-06T12:46:11;10.90;99.90
36800;DHT22;22752;51.960;5.886;2023-04-06T12:48:38;10.80;99.90
36800;DHT22;22752;51.960;5.886;2023-04-06T12:51:05;10.70;99.90
36800;DHT22;22752;51.960;5.886;2023-04-06T12:53:31;10.60;99.90
36800;DHT22;22752;51.960;5.886;2023-04-06T12:55:58;10.60;99.90
36800;DHT22;22752;51.960;5.886;2023-04-06T12:58:24;10.50;99.90
36800;DHT22;22752;51.960;5.886;2023-04-06T13:00:52;10.50;99.90
36800;DHT22;22752;51.960;5.886;2023-04-06T13:03:19;10.50;99.90
36800;DHT22;22752;51.960;5.886;2023-04-06T13:05:51;10.50;99.90
36800;DHT22;22752;51.960;5.886;2023-04-06T13:08:19;10.50;99.90
36800;DHT22;22752;51.960;5.886;2023-04-06T13:10:47;10.50;99.90
36800;DHT22;22752;51.960;5.886;2023-04-06T13:13:16;10.40;99.90
36800;DHT22;22752;51.960;5.886;2023-04-06T13:15:42;10.40;99.90
36800;DHT22;22752;51.960;5.886;2023-04-06T13:18:08;10.30;99.90
36800;DHT22;22752;51.960;5.886;2023-04-06T13:20:35;10.20;99.90
36800;DHT22;22752;51.960;5.886;2023-04-06T13:23:01;10.20;99.90
36800;DHT22;22752;51.960;5.886;2023-04-06T13:25:27;10.20;99.90
36800;DHT22;22752;51.960;5.886;2023-04-06T13:27:53;10.10;99.90
36800;DHT22;22752;51.960;5.886;2023-04-06T13:30:20;10.10;99.90
36800;DHT22;22752;51.960;5.886;2023-04-06T13:32:45;10.00;99.90
36800;DHT22;22752;51.960;5.886;2023-04-06T13:35:11;10.00;99.90
36800;DHT22;22752;51.960;5.886;2023-04-06T13:37:38;10.00;99.90
36800;DHT22;22752;51.960;5.886;2023-04-06T13:40:04;10.00;99.90
36800;DHT22;22752;51.960;5.886;2023-04-06T13:42:32;10.00;99.90
36800;DHT22;22752;51.960;5.886;2023-04-06T13:45:00;10.00;99.90
36800;DHT22;22752;51.960;5.886;2023-04-06T13:47:26;10.00;99.90
36800;DHT22;22752;51.960;5.886;2023-04-06T13:49:53;10.00;99.90
36800;DHT22;22752;51.960;5.886;2023-04-06T13:52:19;10.00;99.90
36800;DHT22;22752;51.960;5.886;2023-04-06T13:54:45;9.90;99.90
36800;DHT22;22752;51.960;5.886;2023-04-06T13:57:11;10.00;99.90
36800;DHT22;22752;51.960;5.886;2023-04-06T13:59:38;10.10;99.90
36800;DHT22;22752;51.960;5.886;2023-04-06T14:02:09;10.00;99.90
36800;DHT22;22752;51.960;5.886;2023-04-06T14:04:35;10.10;99.90
36800;DHT22;22752;51.960;5.886;2023-04-06T14:07:01;10.10;99.90
36800;DHT22;22752;51.960;5.886;2023-04-06T14:09:28;10.20;99.90
36800;DHT22;22752;51.960;5.886;2023-04-06T14:11:54;10.20;99.90
36800;DHT22;22752;51.960;5.886;2023-04-06T14:14:20;10.20;99.90
36800;DHT22;22752;51.960;5.886;2023-04-06T14:16:46;10.20;99.90
36800;DHT22;22752;51.960;5.886;2023-04-06T14:19:14;10.20;99.90
36800;DHT22;22752;51.960;5.886;2023-04-06T14:21:41;10.20;99.90
36800;DHT22;22752;51.960;5.886;2023-04-06T14:24:07;10.10;99.90
36800;DHT22;22752;51.960;5.886;2023-04-06T14:26:36;10.10;99.90
36800;DHT22;22752;51.960;5.886;2023-04-06T14:29:03;10.10;99.90
36800;DHT22;22752;51.960;5.886;2023-04-06T14:31:30;10.10;99.90
36800;DHT22;22752;51.960;5.886;2023-04-06T14:33:56;10.10;99.90
36800;DHT22;22752;51.960;5.886;2023-04-06T14:36:22;10.00;99.90
36800;DHT22;22752;51.960;5.886;2023-04-06T14:38:47;10.00;99.90
36800;DHT22;22752;51.960;5.886;2023-04-06T14:41:20;9.90;99.90
36800;DHT22;22752;51.960;5.886;2023-04-06T14:43:47;9.80;99.90
36800;DHT22;22752;51.960;5.886;2023-04-06T14:46:13;9.80;99.90
36800;DHT22;22752;51.960;5.886;2023-04-06T14:48:38;9.70;99.90
36800;DHT22;22752;51.960;5.886;2023-04-06T14:51:05;9.70;99.90
36800;DHT22;22752;51.960;5.886;2023-04-06T14:53:31;9.70;99.90
36800;DHT22;22752;51.960;5.886;2023-04-06T14:55:57;9.60;99.90
36800;DHT22;22752;51.960;5.886;2023-04-06T14:58:25;9.60;99.90
36800;DHT22;22752;51.960;5.886;2023-04-06T15:00:55;9.60;99.90
36800;DHT22;22752;51.960;5.886;2023-04-06T15:03:21;9.60;99.90
36800;DHT22;22752;51.960;5.886;2023-04-06T15:05:47;9.60;99.90
36800;DHT22;22752;51.960;5.886;2023-04-06T15:08:13;9.60;99.90
36800;DHT22;22752;51.960;5.886;2023-04-06T15:10:40;9.60;99.90
36800;DHT22;22752;51.960;5.886;2023-04-06T15:13:06;9.50;99.90
36800;DHT22;22752;51.960;5.886;2023-04-06T15:15:31;9.60;99.90
36800;DHT22;22752;51.960;5.886;2023-04-06T15:17:57;9.60;99.90
36800;DHT22;22752;51.960;5.886;2023-04-06T15:20:23;9.60;99.90
36800;DHT22;22752;51.960;5.886;2023-04-06T15:22:48;9.50;99.90
36800;DHT22;22752;51.960;5.886;2023-04-06T15:25:14;9.50;99.90
36800;DHT22;22752;51.960;5.886;2023-04-06T15:27:40;9.50;99.90
36800;DHT22;22752;51.960;5.886;2023-04-06T15:30:06;9.40;99.90
36800;DHT22;22752;51.960;5.886;2023-04-06T15:32:31;9.40;99.90
36800;DHT22;22752;51.960;5.886;2023-04-06T15:34:58;9.40;99.90
36800;DHT22;22752;51.960;5.886;2023-04-06T15:37:24;9.30;99.90
36800;DHT22;22752;51.960;5.886;2023-04-06T15:39:50;9.30;99.90
36800;DHT22;22752;51.960;5.886;2023-04-06T15:42:15;9.30;99.90
36800;DHT22;22752;51.960;5.886;2023-04-06T15:44:41;9.30;99.90
36800;DHT22;22752;51.960;5.886;2023-04-06T15:47:07;9.30;99.90
36800;DHT22;22752;51.960;5.886;2023-04-06T15:49:32;9.30;99.90
36800;DHT22;22752;51.960;5.886;2023-04-06T15:51:59;9.20;99.90
36800;DHT22;22752;51.960;5.886;2023-04-06T15:54:25;9.20;99.90
36800;DHT22;22752;51.960;5.886;2023-04-06T15:56:50;9.20;99.90
36800;DHT22;22752;51.960;5.886;2023-04-06T15:59:16;9.20;99.90
36800;DHT22;22752;51.960;5.886;2023-04-06T16:01:42;9.20;99.90
36800;DHT22;22752;51.960;5.886;2023-04-06T16:04:08;9.20;99.90
36800;DHT22;22752;51.960;5.886;2023-04-06T16:06:35;9.20;99.90
36800;DHT22;22752;51.960;5.886;2023-04-06T16:09:01;9.10;99.90
36800;DHT22;22752;51.960;5.886;2023-04-06T16:11:27;9.10;99.90
36800;DHT22;22752;51.960;5.886;2023-04-06T16:13:53;9.10;99.90
36800;DHT22;22752;51.960;5.886;2023-04-06T16:16:18;9.10;99.90
36800;DHT22;22752;51.960;5.886;2023-04-06T16:18:45;9.10;99.90
36800;DHT22;22752;51.960;5.886;2023-04-06T16:21:17;9.10;99.90
36800;DHT22;22752;51.960;5.886;2023-04-06T16:23:44;9.10;99.90
36800;DHT22;22752;51.960;5.886;2023-04-06T16:26:13;9.00;99.90
36800;DHT22;22752;51.960;5.886;2023-04-06T16:28:40;9.00;99.90
36800;DHT22;22752;51.960;5.886;2023-04-06T16:31:05;8.90;99.90
36800;DHT22;22752;51.960;5.886;2023-04-06T16:33:31;8.90;99.90
36800;DHT22;22752;51.960;5.886;2023-04-06T16:35:57;8.90;99.90
36800;DHT22;22752;51.960;5.886;2023-04-06T16:38:22;8.90;99.90
36800;DHT22;22752;51.960;5.886;2023-04-06T16:40:59;8.90;99.90
36800;DHT22;22752;51.960;5.886;2023-04-06T16:43:25;8.90;99.90
36800;DHT22;22752;51.960;5.886;2023-04-06T16:45:51;8.90;99.90
36800;DHT22;22752;51.960;5.886;2023-04-06T16:48:17;8.90;99.90
36800;DHT22;22752;51.960;5.886;2023-04-06T16:50:43;8.80;99.90
36800;DHT22;22752;51.960;5.886;2023-04-06T16:53:09;8.90;99.90
36800;DHT22;22752;51.960;5.886;2023-04-06T16:55:38;8.90;99.90
36800;DHT22;22752;51.960;5.886;2023-04-06T16:58:05;8.90;99.90
36800;DHT22;22752;51.960;5.886;2023-04-06T17:00:30;8.90;99.90
36800;DHT22;22752;51.960;5.886;2023-04-06T17:02:56;8.80;99.90
36800;DHT22;22752;51.960;5.886;2023-04-06T17:05:22;8.90;99.90
36800;DHT22;22752;51.960;5.886;2023-04-06T17:07:49;8.90;99.90
36800;DHT22;22752;51.960;5.886;2023-04-06T17:10:14;8.90;99.90
36800;DHT22;22752;51.960;5.886;2023-04-06T17:12:40;8.80;99.90
36800;DHT22;22752;51.960;5.886;2023-04-06T17:15:06;8.90;99.90
36800;DHT22;22752;51.960;5.886;2023-04-06T17:17:32;8.80;99.90
36800;DHT22;22752;51.960;5.886;2023-04-06T17:19:58;8.90;99.90
36800;DHT22;22752;51.960;5.886;2023-04-06T17:22:23;8.80;99.90
36800;DHT22;22752;51.960;5.886;2023-04-06T17:24:49;8.90;99.90
36800;DHT22;22752;51.960;5.886;2023-04-06T17:27:15;8.90;99.90
36800;DHT22;22752;51.960;5.886;2023-04-06T17:29:41;8.80;99.90
36800;DHT22;22752;51.960;5.886;2023-04-06T17:32:07;8.90;99.90
36800;DHT22;22752;51.960;5.886;2023-04-06T17:34:33;8.90;99.90
36800;DHT22;22752;51.960;5.886;2023-04-06T17:36:58;8.90;99.90
36800;DHT22;22752;51.960;5.886;2023-04-06T17:39:24;8.90;99.90
36800;DHT22;22752;51.960;5.886;2023-04-06T17:41:50;8.90;99.90
36800;DHT22;22752;51.960;5.886;2023-04-06T17:44:15;8.80;99.90
36800;DHT22;22752;51.960;5.886;2023-04-06T17:46:41;8.70;99.90
36800;DHT22;22752;51.960;5.886;2023-04-06T17:49:06;8.80;99.90
36800;DHT22;22752;51.960;5.886;2023-04-06T17:51:33;8.70;99.90
36800;DHT22;22752;51.960;5.886;2023-04-06T17:53:59;8.70;99.90
36800;DHT22;22752;51.960;5.886;2023-04-06T17:56:25;8.70;99.90
36800;DHT22;22752;51.960;5.886;2023-04-06T17:58:54;8.60;99.90
36800;DHT22;22752;51.960;5.886;2023-04-06T18:01:21;8.60;99.90
36800;DHT22;22752;51.960;5.886;2023-04-06T18:03:47;8.60;99.90
36800;DHT22;22752;51.960;5.886;2023-04-06T18:06:14;8.60;99.90
36800;DHT22;22752;51.960;5.886;2023-04-06T18:08:40;8.60;99.90
36800;DHT22;22752;51.960;5.886;2023-04-06T18:11:09;8.60;99.90
36800;DHT22;22752;51.960;5.886;2023-04-06T18:13:38;8.60;99.90
36800;DHT22;22752;51.960;5.886;2023-04-06T18:16:04;8.60;99.90
36800;DHT22;22752;51.960;5.886;2023-04-06T18:18:29;8.50;99.90
36800;DHT22;22752;51.960;5.886;2023-04-06T18:20:55;8.60;99.90
36800;DHT22;22752;51.960;5.886;2023-04-06T18:23:21;8.50;99.90
36800;DHT22;22752;51.960;5.886;2023-04-06T18:25:47;8.50;99.90
36800;DHT22;22752;51.960;5.886;2023-04-06T18:28:12;8.50;99.90
36800;DHT22;22752;51.960;5.886;2023-04-06T18:30:38;8.60;99.90
36800;DHT22;22752;51.960;5.886;2023-04-06T18:33:04;8.60;99.90
36800;DHT22;22752;51.960;5.886;2023-04-06T18:35:30;8.60;99.90
36800;DHT22;22752;51.960;5.886;2023-04-06T18:37:56;8.60;99.90
36800;DHT22;22752;51.960;5.886;2023-04-06T18:40:35;8.60;99.90
36800;DHT22;22752;51.960;5.886;2023-04-06T18:43:02;8.60;99.90
36800;DHT22;22752;51.960;5.886;2023-04-06T18:45:31;8.60;99.90